Time;durP1;ratioP1;P1;durP2;ratioP2;P2;SDS_P1;SDS_P2;PMS_P1;PMS_P2;Temp;Humidity;BMP_temperature;BMP_pressure;BME280_temperature;BME280_humidity;BME280_pressure;Samples;Min_cycle;Max_cycle;Signal;HPM_P1;HPM_P2
2021/10/06 00:01:09;;;;;;;11.60;10.70;;;;;;;;;;5121926;27;24425;-61
2021/10/06 00:03:34;;;;;;;11.25;10.35;;;;;;;;;;5126070;27;24405;-61
2021/10/06 00:06:00;;;;;;;12.10;11.20;;;;;;;;;;5127789;27;24433;-62
2021/10/06 00:08:25;;;;;;;11.37;10.47;;;;;;;;;;5126407;27;24425;-62
2021/10/06 00:10:50;;;;;;;10.90;10.10;;;;;;;;;;5127536;27;24413;-62
2021/10/06 00:13:15;;;;;;;11.13;10.33;;;;;;;;;;5127398;27;24413;-61
2021/10/06 00:15:41;;;;;;;14.30;13.10;;;;;;;;;;5126255;27;24530;-62
2021/10/06 00:18:06;;;;;;;13.87;12.73;;;;;;;;;;5127418;27;24424;-62
2021/10/06 00:20:31;;;;;;;12.20;11.30;;;;;;;;;;5127715;27;24490;-62
2021/10/06 00:22:57;;;;;;;11.30;10.50;;;;;;;;;;5125533;28;24453;-62
2021/10/06 00:25:22;;;;;;;12.50;11.50;;;;;;;;;;5127343;28;24417;-61
2021/10/06 00:27:49;;;;;;;12.27;11.38;;;;;;;;;;5127205;28;24504;-61
2021/10/06 00:30:15;;;;;;;13.15;12.15;;;;;;;;;;5127070;28;24417;-61
2021/10/06 00:32:40;;;;;;;12.90;11.87;;;;;;;;;;5127190;28;24428;-61
2021/10/06 00:35:05;;;;;;;14.20;13.00;;;;;;;;;;5125415;27;25253;-61
2021/10/06 00:37:30;;;;;;;12.80;11.70;;;;;;;;;;5127752;27;24416;-61
2021/10/06 00:39:55;;;;;;;12.77;11.77;;;;;;;;;;5126605;27;24520;-61
2021/10/06 00:42:20;;;;;;;14.15;13.05;;;;;;;;;;5126632;28;24509;-61
2021/10/06 00:44:45;;;;;;;13.25;12.15;;;;;;;;;;5125943;27;24416;-61
2021/10/06 00:47:12;;;;;;;12.70;11.70;;;;;;;;;;5131195;27;25024;-61
2021/10/06 00:49:37;;;;;;;12.63;11.63;;;;;;;;;;5131435;27;24825;-61
2021/10/06 00:52:02;;;;;;;14.17;12.97;;;;;;;;;;5127371;27;25015;-61
2021/10/06 00:54:28;;;;;;;13.10;12.00;;;;;;;;;;5128546;27;24536;-61
2021/10/06 00:56:53;;;;;;;14.50;13.33;;;;;;;;;;5131282;27;24458;-61
2021/10/06 00:59:18;;;;;;;13.03;11.93;;;;;;;;;;5130583;27;24561;-61
2021/10/06 01:01:43;;;;;;;14.20;13.00;;;;;;;;;;5128502;27;24736;-61
2021/10/06 01:04:08;;;;;;;14.23;13.13;;;;;;;;;;5131259;27;24478;-61
2021/10/06 01:06:33;;;;;;;15.30;14.00;;;;;;;;;;5130332;27;24542;-61
2021/10/06 01:08:59;;;;;;;13.90;12.70;;;;;;;;;;5130079;27;24417;-61
2021/10/06 01:11:24;;;;;;;13.60;12.50;;;;;;;;;;5128956;27;24741;-61
2021/10/06 01:13:50;;;;;;;13.10;12.00;;;;;;;;;;5126393;27;24554;-61
2021/10/06 01:16:15;;;;;;;12.13;11.13;;;;;;;;;;5129848;27;24491;-61
2021/10/06 01:18:40;;;;;;;12.75;11.65;;;;;;;;;;5130527;27;25004;-61
2021/10/06 01:21:13;;;;;;;12.00;11.00;;;;;;;;;;5129824;27;24425;-61
2021/10/06 01:23:38;;;;;;;11.80;10.90;;;;;;;;;;5131154;27;24639;-61
2021/10/06 01:26:04;;;;;;;11.83;10.93;;;;;;;;;;5128676;27;24571;-61
2021/10/06 01:28:30;;;;;;;13.30;12.20;;;;;;;;;;5130315;27;24412;-61
2021/10/06 01:30:55;;;;;;;12.20;11.20;;;;;;;;;;5130277;27;24421;-61
2021/10/06 01:33:20;;;;;;;12.73;11.53;;;;;;;;;;5125538;27;24436;-59
2021/10/06 01:35:45;;;;;;;12.70;11.70;;;;;;;;;;5129534;27;24449;-59
2021/10/06 01:38:10;;;;;;;13.00;12.00;;;;;;;;;;5130536;27;24978;-59
2021/10/06 01:40:36;;;;;;;12.90;11.90;;;;;;;;;;5129704;27;24599;-59
2021/10/06 01:43:01;;;;;;;11.52;10.63;;;;;;;;;;5118392;27;24964;-60
2021/10/06 01:45:27;;;;;;;12.25;11.25;;;;;;;;;;5127984;27;24409;-59
2021/10/06 01:47:53;;;;;;;14.43;13.27;;;;;;;;;;5130457;27;24492;-60
2021/10/06 01:50:23;;;;;;;12.25;11.25;;;;;;;;;;5129599;27;24899;-59
2021/10/06 01:52:48;;;;;;;15.40;14.00;;;;;;;;;;5128827;27;24425;-59
2021/10/06 01:55:13;;;;;;;14.80;13.50;;;;;;;;;;5124844;27;24414;-60
2021/10/06 01:57:38;;;;;;;15.90;14.50;;;;;;;;;;5129130;27;24417;-59
2021/10/06 02:00:04;;;;;;;13.40;12.30;;;;;;;;;;5129760;27;25116;-59
2021/10/06 02:02:29;;;;;;;12.57;11.57;;;;;;;;;;5129146;27;24399;-62
2021/10/06 02:04:54;;;;;;;12.82;11.82;;;;;;;;;;5128981;27;24443;-60
2021/10/06 02:07:19;;;;;;;12.60;11.60;;;;;;;;;;5129705;27;24485;-60
2021/10/06 02:09:45;;;;;;;14.00;12.90;;;;;;;;;;5129662;27;24761;-60
2021/10/06 02:12:10;;;;;;;13.15;12.02;;;;;;;;;;5129449;27;24413;-60
2021/10/06 02:14:35;;;;;;;13.52;12.32;;;;;;;;;;5129056;27;24429;-59
2021/10/06 02:17:00;;;;;;;12.95;11.95;;;;;;;;;;5129534;27;26088;-60
2021/10/06 02:19:25;;;;;;;12.40;11.40;;;;;;;;;;5129194;27;24466;-60
2021/10/06 02:21:50;;;;;;;13.45;12.25;;;;;;;;;;5129106;27;25016;-60
2021/10/06 02:24:15;;;;;;;12.20;11.30;;;;;;;;;;5129043;27;24405;-60
2021/10/06 02:26:41;;;;;;;13.52;12.45;;;;;;;;;;5128578;27;24544;-60
2021/10/06 02:29:06;;;;;;;12.35;11.25;;;;;;;;;;5129696;27;24718;-60
2021/10/06 02:31:31;;;;;;;11.70;10.80;;;;;;;;;;5129112;27;24465;-60
2021/10/06 02:33:56;;;;;;;13.23;12.23;;;;;;;;;;5128122;27;24475;-60
2021/10/06 02:36:21;;;;;;;12.20;11.23;;;;;;;;;;5128214;27;24492;-60
2021/10/06 02:38:46;;;;;;;12.98;12.00;;;;;;;;;;5128553;27;24405;-60
2021/10/06 02:41:11;;;;;;;15.27;14.07;;;;;;;;;;5128602;27;24433;-60
2021/10/06 02:43:37;;;;;;;12.32;11.43;;;;;;;;;;5128178;27;24417;-61
2021/10/06 02:46:02;;;;;;;11.67;10.77;;;;;;;;;;5128352;27;24972;-60
2021/10/06 02:48:27;;;;;;;12.17;11.27;;;;;;;;;;5128325;27;24417;-60
2021/10/06 02:50:52;;;;;;;11.30;10.40;;;;;;;;;;5128815;27;24445;-60
2021/10/06 02:53:17;;;;;;;13.80;12.50;;;;;;;;;;5128380;27;24485;-60
2021/10/06 02:55:42;;;;;;;11.90;11.00;;;;;;;;;;5128156;27;24420;-60
2021/10/06 02:58:08;;;;;;;15.30;14.10;;;;;;;;;;5128480;27;25009;-60
2021/10/06 03:00:33;;;;;;;12.80;11.77;;;;;;;;;;5127787;27;24513;-60
2021/10/06 03:02:58;;;;;;;13.00;12.00;;;;;;;;;;5128325;27;24462;-60
2021/10/06 03:05:23;;;;;;;12.52;11.52;;;;;;;;;;5128372;27;24454;-61
2021/10/06 03:07:48;;;;;;;12.70;11.70;;;;;;;;;;5127820;27;24417;-60
2021/10/06 03:10:14;;;;;;;11.33;10.43;;;;;;;;;;5127359;27;24512;-60
2021/10/06 03:12:39;;;;;;;11.00;10.20;;;;;;;;;;5125739;27;24433;-60
2021/10/06 03:15:06;;;;;;;10.57;9.77;;;;;;;;;;5124312;27;24440;-60
2021/10/06 03:17:31;;;;;;;11.52;10.63;;;;;;;;;;5125199;27;24437;-61
2021/10/06 03:19:56;;;;;;;10.77;9.97;;;;;;;;;;5126722;27;24480;-61
2021/10/06 03:22:21;;;;;;;11.10;10.30;;;;;;;;;;5122440;27;24501;-61
2021/10/06 03:24:46;;;;;;;10.52;9.80;;;;;;;;;;5126498;27;24409;-61
2021/10/06 03:27:13;;;;;;;11.73;10.82;;;;;;;;;;5127666;27;24749;-61
2021/10/06 03:29:38;;;;;;;11.60;10.70;;;;;;;;;;5127031;27;24417;-62
2021/10/06 03:32:03;;;;;;;10.10;9.33;;;;;;;;;;5127731;27;24486;-61
2021/10/06 03:34:28;;;;;;;10.20;9.40;;;;;;;;;;5126934;27;24543;-61
2021/10/06 03:36:53;;;;;;;8.23;7.63;;;;;;;;;;5121711;27;24442;-61
2021/10/06 03:39:18;;;;;;;8.10;7.60;;;;;;;;;;5127156;27;24417;-61
2021/10/06 03:41:44;;;;;;;8.07;7.47;;;;;;;;;;5127216;27;24413;-61
2021/10/06 03:44:09;;;;;;;8.20;7.60;;;;;;;;;;5127488;27;24408;-61
2021/10/06 03:46:34;;;;;;;8.67;8.07;;;;;;;;;;5127447;27;25048;-61
2021/10/06 03:48:59;;;;;;;9.20;8.60;;;;;;;;;;5125765;27;24443;-61
2021/10/06 03:51:24;;;;;;;8.40;7.80;;;;;;;;;;5127413;27;24492;-61
2021/10/06 03:53:50;;;;;;;10.10;9.40;;;;;;;;;;5127873;27;24416;-61
2021/10/06 03:56:15;;;;;;;9.87;9.17;;;;;;;;;;5127571;27;24427;-60
2021/10/06 03:58:40;;;;;;;7.82;7.22;;;;;;;;;;5127564;27;24440;-62
2021/10/06 04:01:05;;;;;;;7.85;7.35;;;;;;;;;;5126358;27;24429;-60
2021/10/06 04:03:30;;;;;;;7.30;6.80;;;;;;;;;;5119439;27;24513;-60
2021/10/06 04:05:55;;;;;;;7.40;6.90;;;;;;;;;;5120774;27;24432;-60
2021/10/06 04:08:20;;;;;;;7.83;7.23;;;;;;;;;;5125852;27;24465;-60
2021/10/06 04:10:46;;;;;;;5.77;5.37;;;;;;;;;;5127075;27;24454;-60
2021/10/06 04:13:11;;;;;;;4.90;4.50;;;;;;;;;;5126517;27;24421;-60
2021/10/06 04:15:36;;;;;;;4.10;3.80;;;;;;;;;;5120893;27;24566;-60
2021/10/06 04:18:05;;;;;;;4.00;3.70;;;;;;;;;;5122005;27;24781;-60
2021/10/06 04:20:30;;;;;;;3.90;3.50;;;;;;;;;;5125384;27;25011;-60
2021/10/06 04:22:55;;;;;;;4.10;3.80;;;;;;;;;;5126003;27;24501;-60
2021/10/06 04:25:20;;;;;;;4.00;3.60;;;;;;;;;;5122501;28;24774;-61
2021/10/06 04:27:45;;;;;;;3.30;3.00;;;;;;;;;;5117135;28;24444;-60
2021/10/06 04:30:11;;;;;;;3.10;2.80;;;;;;;;;;5118443;28;24570;-61
2021/10/06 04:32:36;;;;;;;2.90;2.60;;;;;;;;;;5122893;28;24788;-60
2021/10/06 04:35:02;;;;;;;2.67;2.10;;;;;;;;;;5119415;28;24430;-61
2021/10/06 04:37:27;;;;;;;2.13;1.88;;;;;;;;;;5118818;28;24540;-61
2021/10/06 04:39:52;;;;;;;1.92;1.70;;;;;;;;;;5116813;27;24441;-60
2021/10/06 04:42:17;;;;;;;2.10;1.60;;;;;;;;;;5118051;28;25202;-60
2021/10/06 04:44:43;;;;;;;1.67;1.50;;;;;;;;;;5123519;28;24421;-61
2021/10/06 04:47:08;;;;;;;1.50;1.40;;;;;;;;;;5124539;28;24408;-60
2021/10/06 04:49:33;;;;;;;2.00;1.20;;;;;;;;;;5123884;28;24463;-60
2021/10/06 04:51:58;;;;;;;1.30;1.20;;;;;;;;;;5105045;28;24584;-60
2021/10/06 04:54:24;;;;;;;1.53;1.23;;;;;;;;;;5122922;28;24437;-61
2021/10/06 04:56:49;;;;;;;1.20;1.10;;;;;;;;;;5122546;28;24444;-61
2021/10/06 04:59:14;;;;;;;1.47;1.20;;;;;;;;;;5120912;28;24840;-61
2021/10/06 05:01:39;;;;;;;1.30;1.10;;;;;;;;;;5123814;28;24431;-61
2021/10/06 05:04:06;;;;;;;1.10;1.00;;;;;;;;;;5124570;28;24449;-61
2021/10/06 05:06:31;;;;;;;1.50;1.10;;;;;;;;;;5119464;28;24413;-60
2021/10/06 05:08:57;;;;;;;1.20;1.10;;;;;;;;;;5123710;28;24474;-61
2021/10/06 05:11:23;;;;;;;0.95;0.93;;;;;;;;;;5120037;28;24488;-61
2021/10/06 05:13:48;;;;;;;1.23;1.13;;;;;;;;;;5119889;27;24535;-60
2021/10/06 05:16:13;;;;;;;0.97;0.97;;;;;;;;;;5123044;28;24409;-61
2021/10/06 05:18:38;;;;;;;1.60;1.00;;;;;;;;;;5124694;28;25080;-61
2021/10/06 05:21:04;;;;;;;1.30;0.90;;;;;;;;;;5120744;28;25047;-61
2021/10/06 05:23:29;;;;;;;1.10;1.10;;;;;;;;;;5116740;28;24437;-61
2021/10/06 05:25:54;;;;;;;1.77;1.05;;;;;;;;;;5118796;28;24424;-60
2021/10/06 05:28:21;;;;;;;1.20;1.10;;;;;;;;;;5122569;28;25032;-61
2021/10/06 05:30:46;;;;;;;1.90;1.10;;;;;;;;;;5121651;27;24448;-61
2021/10/06 05:33:11;;;;;;;1.20;1.10;;;;;;;;;;5124220;27;24481;-61
2021/10/06 05:35:36;;;;;;;1.90;1.30;;;;;;;;;;5123047;27;24657;-61
2021/10/06 05:38:01;;;;;;;1.33;1.20;;;;;;;;;;5123333;27;24753;-61
2021/10/06 05:40:26;;;;;;;1.20;1.10;;;;;;;;;;5124791;27;24482;-60
2021/10/06 05:42:51;;;;;;;1.30;1.20;;;;;;;;;;5124994;27;24501;-63
2021/10/06 05:45:17;;;;;;;1.30;1.20;;;;;;;;;;5126189;27;24462;-61
2021/10/06 05:47:42;;;;;;;1.83;1.30;;;;;;;;;;5122904;27;24940;-60
2021/10/06 05:50:07;;;;;;;1.10;1.05;;;;;;;;;;5120567;27;24501;-63
2021/10/06 05:52:34;;;;;;;1.25;1.10;;;;;;;;;;5122564;27;24401;-62
2021/10/06 05:54:59;;;;;;;1.27;1.00;;;;;;;;;;5122224;27;24420;-63
2021/10/06 05:57:24;;;;;;;1.40;1.15;;;;;;;;;;5126404;27;24402;-62
2021/10/06 05:59:51;;;;;;;1.30;1.20;;;;;;;;;;5124392;27;24488;-61
2021/10/06 06:02:17;;;;;;;1.90;1.30;;;;;;;;;;5121030;27;24896;-61
2021/10/06 06:04:42;;;;;;;1.70;1.10;;;;;;;;;;5119849;27;24402;-61
2021/10/06 06:07:07;;;;;;;1.27;1.17;;;;;;;;;;5124000;27;24421;-61
2021/10/06 06:09:32;;;;;;;1.27;1.10;;;;;;;;;;5126094;27;24836;-61
2021/10/06 06:12:00;;;;;;;2.10;1.30;;;;;;;;;;5123476;27;24454;-62
2021/10/06 06:14:25;;;;;;;1.40;1.17;;;;;;;;;;5129485;27;24401;-60
2021/10/06 06:16:51;;;;;;;1.10;1.00;;;;;;;;;;5129407;27;24606;-61
2021/10/06 06:19:16;;;;;;;1.00;0.90;;;;;;;;;;5124530;27;24451;-61
2021/10/06 06:21:42;;;;;;;0.90;0.90;;;;;;;;;;5117239;27;25277;-61
2021/10/06 06:24:07;;;;;;;0.90;0.90;;;;;;;;;;5129718;27;24389;-61
2021/10/06 06:26:32;;;;;;;1.00;0.90;;;;;;;;;;5129641;27;24417;-61
2021/10/06 06:28:57;;;;;;;1.10;1.00;;;;;;;;;;5129675;27;24921;-61
2021/10/06 06:31:22;;;;;;;1.40;1.07;;;;;;;;;;5124792;27;24428;-61
2021/10/06 06:33:48;;;;;;;1.48;0.93;;;;;;;;;;5129331;27;24477;-61
2021/10/06 06:36:13;;;;;;;0.90;0.90;;;;;;;;;;5121678;27;24501;-61
2021/10/06 06:38:38;;;;;;;1.60;1.10;;;;;;;;;;5127160;27;25063;-61
2021/10/06 06:41:03;;;;;;;1.00;0.90;;;;;;;;;;5123141;27;24440;-61
2021/10/06 06:43:28;;;;;;;1.20;0.90;;;;;;;;;;5123847;27;24519;-62
2021/10/06 06:45:54;;;;;;;0.80;0.80;;;;;;;;;;5121232;27;24413;-62
2021/10/06 06:48:19;;;;;;;1.52;1.00;;;;;;;;;;5116705;27;24933;-61
2021/10/06 06:50:45;;;;;;;0.83;0.80;;;;;;;;;;5121035;27;24431;-61
2021/10/06 06:53:10;;;;;;;1.17;1.00;;;;;;;;;;5113432;27;24558;-62
2021/10/06 06:55:35;;;;;;;1.20;1.10;;;;;;;;;;5118332;27;24524;-61
2021/10/06 06:58:00;;;;;;;2.10;1.20;;;;;;;;;;5123046;27;24416;-63
2021/10/06 07:00:26;;;;;;;1.20;1.10;;;;;;;;;;5125364;27;24440;-62
2021/10/06 07:02:51;;;;;;;1.20;1.10;;;;;;;;;;5121810;27;24420;-60
2021/10/06 07:05:16;;;;;;;1.20;1.00;;;;;;;;;;5119689;27;24534;-60
2021/10/06 07:07:42;;;;;;;0.90;0.80;;;;;;;;;;5119013;27;24408;-60
2021/10/06 07:10:08;;;;;;;1.30;1.00;;;;;;;;;;5121115;27;24435;-61
2021/10/06 07:12:33;;;;;;;1.73;1.10;;;;;;;;;;5125191;27;24389;-61
2021/10/06 07:14:58;;;;;;;1.30;1.13;;;;;;;;;;5123472;27;25431;-60
2021/10/06 07:17:23;;;;;;;0.90;0.90;;;;;;;;;;5123024;27;24385;-61
2021/10/06 07:19:48;;;;;;;1.23;0.90;;;;;;;;;;5118659;27;24605;-62
2021/10/06 07:22:15;;;;;;;1.27;1.00;;;;;;;;;;5121302;27;24442;-63
2021/10/06 07:24:40;;;;;;;1.23;1.10;;;;;;;;;;5120836;27;25263;-62
2021/10/06 07:27:05;;;;;;;1.10;1.00;;;;;;;;;;5125147;27;24396;-61
2021/10/06 07:29:30;;;;;;;0.90;0.80;;;;;;;;;;5124210;27;24409;-61
2021/10/06 07:31:55;;;;;;;1.15;1.05;;;;;;;;;;5122964;27;24857;-60
2021/10/06 07:34:21;;;;;;;1.30;0.90;;;;;;;;;;5118743;27;24479;-61
2021/10/06 07:36:46;;;;;;;1.00;1.00;;;;;;;;;;5119227;27;24401;-60
2021/10/06 07:39:11;;;;;;;1.60;1.00;;;;;;;;;;5122824;27;24683;-60
2021/10/06 07:41:36;;;;;;;1.60;1.10;;;;;;;;;;5124034;27;24482;-61
2021/10/06 07:44:02;;;;;;;1.80;1.10;;;;;;;;;;5122958;27;24389;-60
2021/10/06 07:46:27;;;;;;;1.40;1.10;;;;;;;;;;5124508;27;24403;-61
2021/10/06 07:48:52;;;;;;;1.50;1.17;;;;;;;;;;5118726;27;24390;-61
2021/10/06 07:51:18;;;;;;;1.23;0.90;;;;;;;;;;5118566;27;24424;-60
2021/10/06 07:53:44;;;;;;;1.50;1.13;;;;;;;;;;5120568;27;24452;-61
2021/10/06 07:56:09;;;;;;;2.50;1.30;;;;;;;;;;5124172;27;24420;-61
2021/10/06 07:58:34;;;;;;;1.58;1.10;;;;;;;;;;5124483;27;24408;-61
2021/10/06 08:01:00;;;;;;;1.30;1.03;;;;;;;;;;5121892;27;24485;-61
2021/10/06 08:03:25;;;;;;;1.70;1.30;;;;;;;;;;5118574;27;25003;-61
2021/10/06 08:05:50;;;;;;;1.30;1.20;;;;;;;;;;5118507;27;24543;-60
2021/10/06 08:08:16;;;;;;;0.80;0.80;;;;;;;;;;5122304;27;24687;-60
2021/10/06 08:10:41;;;;;;;1.60;0.93;;;;;;;;;;5121042;27;24401;-61
2021/10/06 08:13:06;;;;;;;1.92;1.00;;;;;;;;;;5124484;27;24453;-61
2021/10/06 08:15:32;;;;;;;1.17;1.07;;;;;;;;;;5121809;27;24574;-61
2021/10/06 08:17:57;;;;;;;1.40;0.80;;;;;;;;;;5118336;27;24385;-61
2021/10/06 08:20:22;;;;;;;1.80;1.10;;;;;;;;;;5118273;27;24707;-60
2021/10/06 08:22:47;;;;;;;2.00;1.10;;;;;;;;;;5121984;27;24457;-60
2021/10/06 08:25:13;;;;;;;1.80;1.00;;;;;;;;;;5122027;28;24555;-61
2021/10/06 08:27:38;;;;;;;2.10;1.20;;;;;;;;;;5123475;28;24478;-61
2021/10/06 08:30:03;;;;;;;1.63;1.10;;;;;;;;;;5122142;28;24409;-61
2021/10/06 08:32:28;;;;;;;1.73;1.10;;;;;;;;;;5120087;28;24392;-61
2021/10/06 08:34:54;;;;;;;1.88;1.00;;;;;;;;;;5118183;28;24479;-60
2021/10/06 08:37:19;;;;;;;0.77;0.77;;;;;;;;;;5120450;28;24409;-60
2021/10/06 08:39:45;;;;;;;1.20;1.10;;;;;;;;;;5121847;28;24474;-61
2021/10/06 08:42:11;;;;;;;2.00;1.20;;;;;;;;;;5123898;28;24758;-62
2021/10/06 08:44:36;;;;;;;1.20;1.10;;;;;;;;;;5123382;28;24400;-60
2021/10/06 08:47:01;;;;;;;1.00;0.80;;;;;;;;;;5121169;28;24420;-60
2021/10/06 08:49:27;;;;;;;1.75;1.08;;;;;;;;;;5119502;28;24569;-62
2021/10/06 08:51:52;;;;;;;1.80;0.90;;;;;;;;;;5117709;28;24393;-61
2021/10/06 08:54:18;;;;;;;1.25;1.00;;;;;;;;;;5119661;28;24395;-61
2021/10/06 08:56:46;;;;;;;1.50;0.90;;;;;;;;;;5121686;28;24927;-61
2021/10/06 08:59:11;;;;;;;1.77;0.80;;;;;;;;;;5123487;28;24385;-60
2021/10/06 09:01:41;;;;;;;1.42;1.00;;;;;;;;;;5123268;28;24490;-60
2021/10/06 09:04:06;;;;;;;1.90;1.10;;;;;;;;;;5119644;28;24796;-61
2021/10/06 09:06:32;;;;;;;0.95;0.80;;;;;;;;;;5120244;27;24952;-61
2021/10/06 09:08:57;;;;;;;1.50;1.00;;;;;;;;;;5121339;27;25308;-60
2021/10/06 09:11:24;;;;;;;1.40;1.20;;;;;;;;;;5125916;27;24428;-60
2021/10/06 09:13:49;;;;;;;1.50;1.10;;;;;;;;;;5127031;27;24419;-60
2021/10/06 09:16:17;;;;;;;1.40;1.00;;;;;;;;;;5127139;27;24424;-60
2021/10/06 09:18:42;;;;;;;1.77;1.00;;;;;;;;;;5122731;27;24504;-61
2021/10/06 09:21:08;;;;;;;1.73;1.30;;;;;;;;;;5121406;27;24776;-61
2021/10/06 09:23:41;;;;;;;1.30;1.20;;;;;;;;;;5123541;27;24397;-60
2021/10/06 09:26:09;;;;;;;1.40;0.95;;;;;;;;;;5125512;27;24749;-60
2021/10/06 09:28:38;;;;;;;2.70;1.20;;;;;;;;;;5126212;27;24405;-60
2021/10/06 09:31:07;;;;;;;1.10;0.80;;;;;;;;;;5124083;27;24585;-60
2021/10/06 09:33:37;;;;;;;1.50;1.00;;;;;;;;;;5122981;27;24492;-60
2021/10/06 09:36:19;;;;;;;1.65;1.00;;;;;;;;;;5121906;27;24417;-60
2021/10/06 09:38:52;;;;;;;1.70;1.23;;;;;;;;;;5122617;27;24425;-60
2021/10/06 09:41:23;;;;;;;1.60;1.17;;;;;;;;;;5126334;27;24941;-60
2021/10/06 09:43:54;;;;;;;2.65;1.45;;;;;;;;;;5124090;27;24854;-60
2021/10/06 09:46:20;;;;;;;2.90;1.30;;;;;;;;;;5126646;27;24924;-60
2021/10/06 09:48:45;;;;;;;1.20;1.10;;;;;;;;;;5120378;27;24895;-63
2021/10/06 09:51:10;;;;;;;1.73;1.20;;;;;;;;;;5120819;27;24984;-63
2021/10/06 09:53:46;;;;;;;1.60;1.20;;;;;;;;;;5122215;27;24457;-60
2021/10/06 09:56:11;;;;;;;1.40;0.90;;;;;;;;;;5126709;27;24393;-62
2021/10/06 09:58:36;;;;;;;0.98;0.80;;;;;;;;;;5126162;27;24842;-60
2021/10/06 10:01:01;;;;;;;0.98;0.88;;;;;;;;;;5124005;27;24477;-60
2021/10/06 10:03:27;;;;;;;1.63;0.80;;;;;;;;;;5124685;27;24401;-60
2021/10/06 10:05:52;;;;;;;1.63;0.90;;;;;;;;;;5120614;27;24413;-60
2021/10/06 10:08:18;;;;;;;1.02;0.90;;;;;;;;;;5122229;27;24395;-60
2021/10/06 10:10:43;;;;;;;2.00;1.00;;;;;;;;;;5121705;27;24452;-60
2021/10/06 10:13:08;;;;;;;1.20;0.82;;;;;;;;;;5126284;27;24444;-60
2021/10/06 10:15:33;;;;;;;1.50;0.70;;;;;;;;;;5125923;27;24601;-60
2021/10/06 10:17:59;;;;;;;2.90;0.90;;;;;;;;;;5123931;27;24923;-60
2021/10/06 10:20:26;;;;;;;1.00;0.90;;;;;;;;;;5120233;27;24473;-60
2021/10/06 10:22:59;;;;;;;1.30;0.90;;;;;;;;;;5120307;27;24413;-60
2021/10/06 10:25:26;;;;;;;1.23;0.80;;;;;;;;;;5121579;27;24435;-60
2021/10/06 10:28:03;;;;;;;1.20;1.10;;;;;;;;;;5125781;27;25087;-60
2021/10/06 10:30:31;;;;;;;1.60;1.35;;;;;;;;;;5125585;27;24454;-62
2021/10/06 10:32:57;;;;;;;1.58;1.00;;;;;;;;;;5123419;27;25312;-62
2021/10/06 10:35:33;;;;;;;1.13;1.03;;;;;;;;;;5119724;27;24521;-62
2021/10/06 10:37:58;;;;;;;1.60;1.20;;;;;;;;;;5120233;27;24516;-60
2021/10/06 10:42:58;;;;;;;1.70;0.90;;;;;;;;;;5125426;27;24968;-60
2021/10/06 10:45:33;;;;;;;1.20;0.90;;;;;;;;;;5125479;27;24415;-60
2021/10/06 10:47:58;;;;;;;0.95;0.80;;;;;;;;;;5119508;27;24412;-59
2021/10/06 10:50:35;;;;;;;1.90;1.10;;;;;;;;;;5119906;27;24411;-60
2021/10/06 10:53:02;;;;;;;1.30;1.15;;;;;;;;;;5121564;27;24421;-60
2021/10/06 10:55:43;;;;;;;2.40;1.23;;;;;;;;;;5121493;27;24396;-60
2021/10/06 10:58:38;;;;;;;1.25;1.15;;;;;;;;;;5125057;27;24389;-60
2021/10/06 11:01:05;;;;;;;1.38;1.00;;;;;;;;;;5104202;27;24441;-60
2021/10/06 11:03:30;;;;;;;1.58;1.00;;;;;;;;;;5120965;27;24405;-60
2021/10/06 11:05:58;;;;;;;2.13;0.90;;;;;;;;;;5121422;27;24993;-60
2021/10/06 11:08:26;;;;;;;1.10;1.00;;;;;;;;;;5122950;27;24424;-60
2021/10/06 11:11:10;;;;;;;0.80;0.70;;;;;;;;;;5123083;27;24428;-60
2021/10/06 11:13:39;;;;;;;1.10;0.80;;;;;;;;;;5124638;27;24462;-60
2021/10/06 11:16:04;;;;;;;2.70;1.40;;;;;;;;;;5120646;27;24435;-61
2021/10/06 11:18:38;;;;;;;1.55;1.20;;;;;;;;;;5121058;27;25186;-59
2021/10/06 11:21:05;;;;;;;1.77;0.90;;;;;;;;;;5121144;27;24413;-60
2021/10/06 11:23:30;;;;;;;0.90;0.90;;;;;;;;;;5122547;27;24492;-60
2021/10/06 11:25:56;;;;;;;1.00;0.80;;;;;;;;;;5122443;27;24505;-62
2021/10/06 11:28:21;;;;;;;0.97;0.70;;;;;;;;;;5124945;27;24492;-60
2021/10/06 11:30:56;;;;;;;0.90;0.80;;;;;;;;;;5120325;27;24400;-60
2021/10/06 11:33:25;;;;;;;0.90;0.90;;;;;;;;;;5119058;27;24412;-60
2021/10/06 11:35:50;;;;;;;1.40;0.90;;;;;;;;;;5119755;27;24467;-60
2021/10/06 11:38:16;;;;;;;1.00;0.90;;;;;;;;;;5120426;27;24389;-60
2021/10/06 11:40:41;;;;;;;1.00;0.90;;;;;;;;;;5120663;27;25113;-63
2021/10/06 11:43:06;;;;;;;1.10;0.90;;;;;;;;;;5124616;27;24393;-62
2021/10/06 11:45:31;;;;;;;1.80;1.00;;;;;;;;;;5123926;27;24409;-60
2021/10/06 11:48:00;;;;;;;1.00;0.70;;;;;;;;;;5120597;27;24405;-60
2021/10/06 11:50:33;;;;;;;0.97;0.70;;;;;;;;;;5118839;27;24608;-61
2021/10/06 11:52:58;;;;;;;0.55;0.55;;;;;;;;;;5120765;27;24393;-61
2021/10/06 11:55:23;;;;;;;1.03;0.80;;;;;;;;;;5118178;27;24432;-61
2021/10/06 11:57:48;;;;;;;1.30;1.00;;;;;;;;;;5121739;27;25082;-61
2021/10/06 12:00:16;;;;;;;1.30;0.70;;;;;;;;;;5124045;27;24417;-61
2021/10/06 12:02:41;;;;;;;2.38;0.98;;;;;;;;;;5119778;27;24389;-59
2021/10/06 12:05:07;;;;;;;0.90;0.60;;;;;;;;;;5118035;27;24517;-60
2021/10/06 12:07:32;;;;;;;0.70;0.70;;;;;;;;;;5120013;27;24838;-60
2021/10/06 12:09:59;;;;;;;1.00;0.90;;;;;;;;;;5119961;27;24443;-60
2021/10/06 12:12:25;;;;;;;1.65;0.80;;;;;;;;;;5123795;27;24440;-61
2021/10/06 12:14:57;;;;;;;1.20;0.90;;;;;;;;;;5121766;27;24443;-60
2021/10/06 12:17:23;;;;;;;1.30;0.70;;;;;;;;;;5119699;27;24409;-60
2021/10/06 12:19:54;;;;;;;1.70;0.90;;;;;;;;;;5117726;27;24408;-61
2021/10/06 12:22:19;;;;;;;1.00;0.90;;;;;;;;;;5119683;27;24893;-60
2021/10/06 12:24:44;;;;;;;0.95;0.90;;;;;;;;;;5119609;27;24395;-60
2021/10/06 12:27:23;;;;;;;1.30;0.93;;;;;;;;;;5123054;28;24821;-60
2021/10/06 12:30:02;;;;;;;0.80;0.70;;;;;;;;;;5121682;28;24547;-60
2021/10/06 12:32:30;;;;;;;1.40;1.00;;;;;;;;;;5119896;28;24470;-60
2021/10/06 12:35:02;;;;;;;1.00;0.90;;;;;;;;;;5117347;28;24472;-60
2021/10/06 12:37:27;;;;;;;1.38;0.90;;;;;;;;;;5119123;28;24559;-61
2021/10/06 12:39:52;;;;;;;0.85;0.70;;;;;;;;;;5118980;27;24443;-60
2021/10/06 12:42:17;;;;;;;1.10;0.90;;;;;;;;;;5126027;27;24455;-61
2021/10/06 12:44:47;;;;;;;1.10;0.80;;;;;;;;;;5123635;27;24882;-62
2021/10/06 12:47:13;;;;;;;0.90;0.80;;;;;;;;;;5123767;27;24401;-62
2021/10/06 12:49:59;;;;;;;0.77;0.77;;;;;;;;;;5123677;27;24909;-63
2021/10/06 12:52:25;;;;;;;1.35;0.80;;;;;;;;;;5124802;27;24421;-62
2021/10/06 12:55:11;;;;;;;1.00;0.80;;;;;;;;;;5124596;27;24452;-63
2021/10/06 12:57:36;;;;;;;0.95;0.80;;;;;;;;;;5118224;27;24408;-62
2021/10/06 13:00:04;;;;;;;1.00;0.90;;;;;;;;;;5123155;27;24979;-60
2021/10/06 13:02:29;;;;;;;1.00;0.90;;;;;;;;;;5122827;27;24429;-60
2021/10/06 13:04:54;;;;;;;0.95;0.90;;;;;;;;;;5123447;27;24397;-60
2021/10/06 13:07:20;;;;;;;1.10;1.00;;;;;;;;;;5125249;27;24880;-61
2021/10/06 13:09:45;;;;;;;1.38;0.80;;;;;;;;;;5124718;27;24400;-61
2021/10/06 13:12:10;;;;;;;0.70;0.70;;;;;;;;;;5127308;27;24757;-61
2021/10/06 13:14:35;;;;;;;1.57;1.00;;;;;;;;;;5126894;27;24389;-61
2021/10/06 13:17:01;;;;;;;0.80;0.80;;;;;;;;;;5121133;27;24457;-62
2021/10/06 13:19:26;;;;;;;0.70;0.70;;;;;;;;;;5121572;27;24936;-66
2021/10/06 13:21:56;;;;;;;1.50;0.80;;;;;;;;;;5123073;27;24431;-62
2021/10/06 13:24:31;;;;;;;1.37;0.93;;;;;;;;;;5124508;27;24706;-59
2021/10/06 13:26:56;;;;;;;1.00;0.80;;;;;;;;;;5104793;27;24401;-62
2021/10/06 13:29:24;;;;;;;0.67;0.67;;;;;;;;;;5126341;27;24462;-62
2021/10/06 13:31:49;;;;;;;0.80;0.70;;;;;;;;;;5126117;27;24983;-62
2021/10/06 13:34:14;;;;;;;1.17;0.90;;;;;;;;;;5119064;27;24441;-62
2021/10/06 13:36:40;;;;;;;1.10;0.90;;;;;;;;;;5121393;27;24965;-62
2021/10/06 13:39:06;;;;;;;1.73;1.00;;;;;;;;;;5125620;27;25083;-62
2021/10/06 13:41:31;;;;;;;0.90;0.90;;;;;;;;;;5126534;27;24409;-62
2021/10/06 13:43:56;;;;;;;1.07;0.80;;;;;;;;;;5124632;27;24403;-62
2021/10/06 13:46:22;;;;;;;1.20;1.07;;;;;;;;;;5124426;27;24914;-62
2021/10/06 13:48:47;;;;;;;1.10;0.80;;;;;;;;;;5120879;27;24389;-62
2021/10/06 13:51:14;;;;;;;1.60;1.10;;;;;;;;;;5122999;27;24401;-62
2021/10/06 13:53:39;;;;;;;0.90;0.90;;;;;;;;;;5121647;27;24389;-61
2021/10/06 13:56:04;;;;;;;1.57;1.20;;;;;;;;;;5124152;27;24803;-62
2021/10/06 13:58:30;;;;;;;1.00;0.90;;;;;;;;;;5123743;27;24427;-63
2021/10/06 14:00:55;;;;;;;0.90;0.80;;;;;;;;;;5123129;27;24429;-62
2021/10/06 14:03:20;;;;;;;0.90;0.70;;;;;;;;;;5124563;27;24417;-60
2021/10/06 14:05:45;;;;;;;1.00;0.90;;;;;;;;;;5121064;27;24405;-60
2021/10/06 14:08:10;;;;;;;1.70;1.08;;;;;;;;;;5121593;27;24416;-60
2021/10/06 14:10:36;;;;;;;1.10;0.80;;;;;;;;;;5125695;27;24458;-60
2021/10/06 14:13:01;;;;;;;1.20;0.98;;;;;;;;;;5124033;27;24756;-60
2021/10/06 14:15:26;;;;;;;1.10;1.00;;;;;;;;;;5118799;27;24414;-60
2021/10/06 14:17:56;;;;;;;0.70;0.70;;;;;;;;;;5119791;27;24446;-61
2021/10/06 14:20:22;;;;;;;1.50;1.33;;;;;;;;;;5123180;27;24861;-60
2021/10/06 14:22:48;;;;;;;1.52;1.40;;;;;;;;;;5125605;27;24964;-60
2021/10/06 14:25:13;;;;;;;1.50;1.30;;;;;;;;;;5125082;27;24394;-60
2021/10/06 14:27:39;;;;;;;1.77;1.00;;;;;;;;;;5123243;27;24470;-60
2021/10/06 14:30:05;;;;;;;0.80;0.80;;;;;;;;;;5119032;27;24496;-60
2021/10/06 14:32:30;;;;;;;1.17;0.90;;;;;;;;;;5119430;27;24486;-60